Airport Name : Al Maktoum Intl

Other Name : Dubai World

ICAO : OMDW

IATA : DWC

FAA :

Latitude : 24.91833

Longitude : 55.17556

Country : United Arab Emirates

Local Date and Time : 1/23/2018 9:43:00 AM

 

TAF (Terminal Aerodrome Forecast)

TAF OMDW 230503Z 2306/2412 10005KT 7000 NSC BECMG 2309/2311 33012KT BECMG 2317/2319 15005KT PROB30 2322/2405 3000 BR BECMG 2408/2410 31010KT

 

METAR (METeorological Aerodrome Report)

OMDW 230500Z 09005KT 8000 NSC 14/09 Q1018 NOSIG

OMDW 230400Z 09008KT 8000 NSC 10/07 Q1018 NOSIG

OMDW 230300Z 10008KT 7000 NSC 10/07 Q1018 NOSIG

OMDW 230200Z 09006KT 7000 NSC 09/07 Q1018 NOSIG